Time;durP1;ratioP1;P1;durP2;ratioP2;P2;SDS_P1;SDS_P2;PMS_P1;PMS_P2;Temp;Humidity;BMP_temperature;BMP_pressure;BME280_temperature;BME280_humidity;BME280_pressure;Samples;Min_cycle;Max_cycle;Signal;HPM_P1;HPM_P2
2023/02/03 00:02:39;;;;;;;37.30;24.30;;;;;;;;;;10334258;28;20022;-49
2023/02/03 00:07:39;;;;;;;41.95;22.02;;;;;;;;;;10346571;28;20026;-52
2023/02/03 00:12:40;;;;;;;35.55;21.75;;;;;;;;;;10347120;28;20391;-55
2023/02/03 00:17:41;;;;;;;33.05;21.70;;;;;;;;;;10362317;28;20101;-53
2023/02/03 00:22:42;;;;;;;32.92;21.55;;;;;;;;;;10356009;28;20447;-55
2023/02/03 00:27:42;;;;;;;30.75;20.85;;;;;;;;;;10335587;28;20268;-52
2023/02/03 00:32:43;;;;;;;30.55;21.00;;;;;;;;;;10329578;28;20044;-51
2023/02/03 00:37:50;;;;;;;34.10;21.77;;;;;;;;;;10361138;28;20054;-52
2023/02/03 00:42:50;;;;;;;31.98;21.27;;;;;;;;;;10365585;28;20044;-50
2023/02/03 00:47:51;;;;;;;28.15;20.10;;;;;;;;;;10356275;28;20730;-50
2023/02/03 00:52:51;;;;;;;26.95;19.60;;;;;;;;;;10341218;28;20026;-50
2023/02/03 00:57:52;;;;;;;26.90;19.98;;;;;;;;;;10343894;28;20026;-63
2023/02/03 01:02:53;;;;;;;28.33;19.98;;;;;;;;;;10362131;28;20033;-52
2023/02/03 01:07:53;;;;;;;32.60;19.80;;;;;;;;;;10354791;28;20030;-52
2023/02/03 01:12:54;;;;;;;32.72;20.45;;;;;;;;;;10349137;28;20035;-53
2023/02/03 01:17:54;;;;;;;31.10;18.83;;;;;;;;;;10345510;28;20265;-53
2023/02/03 01:22:55;;;;;;;31.30;19.20;;;;;;;;;;10340534;28;20026;-66
2023/02/03 01:27:55;;;;;;;28.05;18.33;;;;;;;;;;10334199;28;20041;-67
2023/02/03 01:32:56;;;;;;;27.55;19.13;;;;;;;;;;10336481;28;20077;-69
2023/02/03 01:37:58;;;;;;;29.38;18.10;;;;;;;;;;10356579;28;20145;-56
2023/02/03 01:42:58;;;;;;;23.00;17.85;;;;;;;;;;10353041;28;20076;-64
2023/02/03 01:47:59;;;;;;;26.40;17.48;;;;;;;;;;10347146;28;20049;-51
2023/02/03 01:53:07;;;;;;;22.20;16.35;;;;;;;;;;10341110;28;20088;-66
2023/02/03 01:58:14;;;;;;;28.55;17.70;;;;;;;;;;10335015;28;20110;-65
2023/02/03 02:03:18;;;;;;;23.80;16.52;;;;;;;;;;10362260;28;20018;-67
2023/02/03 02:08:21;;;;;;;24.23;18.02;;;;;;;;;;10361977;28;20021;-65
2023/02/03 02:13:22;;;;;;;24.08;16.95;;;;;;;;;;10355397;28;20018;-53
2023/02/03 02:19:06;;;;;;;24.85;17.27;;;;;;;;;;10348232;28;20034;-61
2023/02/03 02:24:44;;;;;;;28.25;18.88;;;;;;;;;;10335222;28;20030;-58
2023/02/03 02:29:57;;;;;;;26.15;18.48;;;;;;;;;;10338906;28;20018;-59
2023/02/03 02:35:18;;;;;;;26.55;20.00;;;;;;;;;;10355752;28;20477;-68
2023/02/03 02:40:34;;;;;;;28.15;19.80;;;;;;;;;;10347758;28;20397;-61
2023/02/03 02:45:52;;;;;;;27.10;19.00;;;;;;;;;;10328491;28;20030;-58
2023/02/03 02:50:56;;;;;;;25.70;19.47;;;;;;;;;;10320792;28;20026;-59
2023/02/03 02:55:59;;;;;;;26.73;17.92;;;;;;;;;;10345645;28;20052;-60
2023/02/03 03:01:01;;;;;;;28.02;18.02;;;;;;;;;;10368817;28;20057;-57
2023/02/03 03:06:10;;;;;;;28.55;18.45;;;;;;;;;;10367308;28;20097;-68
2023/02/03 03:11:11;;;;;;;23.10;17.83;;;;;;;;;;10359917;28;20104;-56
2023/02/03 03:16:14;;;;;;;24.95;18.15;;;;;;;;;;10366377;28;20038;-56
2023/02/03 03:21:23;;;;;;;24.92;17.85;;;;;;;;;;10366917;28;20021;-65
2023/02/03 03:26:33;;;;;;;25.63;17.58;;;;;;;;;;10365512;28;20022;-68
2023/02/03 03:31:34;;;;;;;23.35;17.25;;;;;;;;;;10354794;28;20018;-65
2023/02/03 03:37:06;;;;;;;25.27;17.52;;;;;;;;;;10366602;28;20083;-49
2023/02/03 03:42:11;;;;;;;23.73;17.30;;;;;;;;;;10363755;28;20034;-68
2023/02/03 03:47:29;;;;;;;22.02;16.40;;;;;;;;;;10352992;28;20363;-50
2023/02/03 03:52:34;;;;;;;21.97;16.50;;;;;;;;;;10346077;28;20380;-49
2023/02/03 03:58:02;;;;;;;21.77;16.80;;;;;;;;;;10335956;28;20046;-48
2023/02/03 04:03:25;;;;;;;22.67;16.23;;;;;;;;;;10362937;28;20022;-49
2023/02/03 04:08:25;;;;;;;22.33;15.80;;;;;;;;;;10364815;28;20065;-48
2023/02/03 04:13:26;;;;;;;22.45;15.73;;;;;;;;;;10365651;28;20025;-48
2023/02/03 04:18:26;;;;;;;22.75;16.30;;;;;;;;;;10364982;28;20033;-52
2023/02/03 04:23:27;;;;;;;24.15;15.60;;;;;;;;;;10364620;28;20026;-48
2023/02/03 04:28:27;;;;;;;21.42;15.15;;;;;;;;;;10353733;28;20038;-66
2023/02/03 04:33:28;;;;;;;21.63;14.95;;;;;;;;;;10363299;28;20033;-52
2023/02/03 04:38:29;;;;;;;24.05;15.65;;;;;;;;;;10359410;28;20057;-58
2023/02/03 04:43:29;;;;;;;20.35;14.00;;;;;;;;;;10350950;28;20501;-62
2023/02/03 04:48:30;;;;;;;20.50;14.88;;;;;;;;;;10350151;28;20033;-55
2023/02/03 04:53:31;;;;;;;19.67;13.98;;;;;;;;;;10338466;28;20029;-57
2023/02/03 04:58:31;;;;;;;19.23;14.32;;;;;;;;;;10332324;28;20053;-65
2023/02/03 05:03:32;;;;;;;18.45;14.65;;;;;;;;;;10332724;28;20045;-50
2023/02/03 05:08:33;;;;;;;20.95;14.77;;;;;;;;;;10357386;28;20030;-54
2023/02/03 05:13:33;;;;;;;17.70;13.98;;;;;;;;;;10365429;28;20026;-51
2023/02/03 05:18:34;;;;;;;20.02;13.70;;;;;;;;;;10346495;28;20145;-53
2023/02/03 05:23:35;;;;;;;21.05;14.77;;;;;;;;;;10339913;28;20389;-61
2023/02/03 05:28:35;;;;;;;18.05;13.63;;;;;;;;;;10359361;28;20445;-65
2023/02/03 05:33:36;;;;;;;19.52;14.32;;;;;;;;;;10368860;28;20029;-65
2023/02/03 05:38:36;;;;;;;20.45;13.30;;;;;;;;;;10362855;28;20045;-54
2023/02/03 05:43:37;;;;;;;18.15;13.80;;;;;;;;;;10372025;28;20066;-64
2023/02/03 05:48:38;;;;;;;21.67;14.15;;;;;;;;;;10371243;28;20446;-56
2023/02/03 05:53:38;;;;;;;18.38;13.73;;;;;;;;;;10371874;28;20033;-62
2023/02/03 05:58:39;;;;;;;16.15;12.63;;;;;;;;;;10366950;28;20042;-67
2023/02/03 06:03:39;;;;;;;16.80;12.63;;;;;;;;;;10333041;28;20042;-66
2023/02/03 06:08:40;;;;;;;16.80;12.88;;;;;;;;;;10348177;28;20041;-63
2023/02/03 06:13:40;;;;;;;16.60;12.63;;;;;;;;;;10343832;28;20029;-68
2023/02/03 06:18:41;;;;;;;18.42;13.02;;;;;;;;;;10335020;28;20033;-55
2023/02/03 06:23:42;;;;;;;17.52;12.57;;;;;;;;;;10341185;28;20037;-53
2023/02/03 06:28:42;;;;;;;30.02;12.90;;;;;;;;;;10340442;28;20076;-52
2023/02/03 06:33:43;;;;;;;25.60;12.77;;;;;;;;;;10327182;28;20355;-53
2023/02/03 06:38:44;;;;;;;25.80;12.50;;;;;;;;;;10333383;28;20050;-60
2023/02/03 06:43:44;;;;;;;18.27;13.25;;;;;;;;;;10335254;28;20085;-59
2023/02/03 06:48:45;;;;;;;19.08;13.52;;;;;;;;;;10331525;28;20022;-55
2023/02/03 06:53:45;;;;;;;29.63;14.38;;;;;;;;;;10330088;28;20085;-57
2023/02/03 06:58:46;;;;;;;26.15;16.27;;;;;;;;;;10328633;28;20026;-54
2023/02/03 07:03:47;;;;;;;30.05;20.77;;;;;;;;;;10336575;28;20180;-54
2023/02/03 07:08:47;;;;;;;29.77;20.20;;;;;;;;;;10349691;28;20197;-55
2023/02/03 07:13:48;;;;;;;32.80;19.70;;;;;;;;;;10341187;28;20038;-54
2023/02/03 07:18:48;;;;;;;27.60;19.30;;;;;;;;;;10345456;28;20124;-57
2023/02/03 07:23:50;;;;;;;29.23;18.45;;;;;;;;;;10327960;28;20367;-54
2023/02/03 07:28:51;;;;;;;29.10;18.52;;;;;;;;;;10330933;28;20032;-54
2023/02/03 07:33:51;;;;;;;25.42;17.15;;;;;;;;;;10329381;28;20470;-55
2023/02/03 07:38:52;;;;;;;27.30;17.35;;;;;;;;;;10366580;28;20057;-56
2023/02/03 07:43:53;;;;;;;32.22;17.95;;;;;;;;;;10353443;28;20030;-53
2023/02/03 07:48:53;;;;;;;28.73;17.48;;;;;;;;;;10347635;28;20450;-54
2023/02/03 07:53:55;;;;;;;23.23;16.48;;;;;;;;;;10363068;28;20052;-54
2023/02/03 07:58:56;;;;;;;26.48;16.20;;;;;;;;;;10357993;28;20034;-55
2023/02/03 08:03:56;;;;;;;23.58;16.00;;;;;;;;;;10366632;28;20037;-53
2023/02/03 08:08:57;;;;;;;22.67;15.90;;;;;;;;;;10359511;28;20026;-57
2023/02/03 08:13:58;;;;;;;27.23;16.52;;;;;;;;;;10350356;28;20061;-59
2023/02/03 08:18:58;;;;;;;24.02;15.90;;;;;;;;;;10344305;28;20030;-58
2023/02/03 08:23:59;;;;;;;22.92;15.15;;;;;;;;;;10339718;28;20088;-54
2023/02/03 08:28:59;;;;;;;24.75;15.23;;;;;;;;;;10332121;28;20577;-56
2023/02/03 08:34:00;;;;;;;23.05;15.30;;;;;;;;;;10362539;28;20381;-57
2023/02/03 08:39:00;;;;;;;19.20;14.20;;;;;;;;;;10359960;28;20410;-55
2023/02/03 08:44:01;;;;;;;19.52;12.93;;;;;;;;;;10372921;28;20091;-57
2023/02/03 08:49:02;;;;;;;18.90;13.88;;;;;;;;;;10373167;28;20029;-64
2023/02/03 08:54:03;;;;;;;22.15;14.77;;;;;;;;;;10372874;28;20061;-53
2023/02/03 08:59:03;;;;;;;19.13;13.55;;;;;;;;;;10372735;28;20034;-54
2023/02/03 09:04:06;;;;;;;20.65;13.82;;;;;;;;;;10372779;28;20029;-54
2023/02/03 09:09:06;;;;;;;19.80;14.32;;;;;;;;;;10371534;28;20022;-54
2023/02/03 09:14:07;;;;;;;17.50;13.23;;;;;;;;;;10371061;28;20076;-55
2023/02/03 09:19:08;;;;;;;18.55;13.20;;;;;;;;;;10369630;28;20549;-52
2023/02/03 09:24:08;;;;;;;19.45;13.18;;;;;;;;;;10371272;28;20018;-54
2023/02/03 09:29:09;;;;;;;16.67;12.45;;;;;;;;;;10358426;28;20104;-64
2023/02/03 09:34:10;;;;;;;16.73;12.82;;;;;;;;;;10369124;28;20030;-54
2023/02/03 09:39:11;;;;;;;15.75;12.73;;;;;;;;;;10362506;28;20072;-57
2023/02/03 09:45:05;;;;;;;18.42;13.00;;;;;;;;;;10356292;28;20034;-54
2023/02/03 09:50:15;;;;;;;17.13;12.35;;;;;;;;;;10319293;28;20448;-55
2023/02/03 09:55:39;;;;;;;16.40;12.15;;;;;;;;;;10343286;28;20049;-54
2023/02/03 10:00:46;;;;;;;19.52;12.55;;;;;;;;;;10323360;28;20030;-56
2023/02/03 10:06:28;;;;;;;20.73;13.63;;;;;;;;;;10349966;28;20153;-56
2023/02/03 10:12:09;;;;;;;15.50;11.70;;;;;;;;;;10344348;28;20038;-54
2023/02/03 10:17:29;;;;;;;15.90;11.25;;;;;;;;;;10338765;28;20026;-58
2023/02/03 10:22:36;;;;;;;17.00;12.00;;;;;;;;;;10337360;28;20109;-57
2023/02/03 10:27:37;;;;;;;17.00;11.98;;;;;;;;;;10332439;28;20505;-56
2023/02/03 10:32:38;;;;;;;16.45;11.50;;;;;;;;;;10358362;28;20022;-57
2023/02/03 10:37:50;;;;;;;19.52;11.38;;;;;;;;;;10363778;28;20042;-56
2023/02/03 10:48:16;;;;;;;17.10;11.55;;;;;;;;;;10348590;28;20057;-56
2023/02/03 10:53:21;;;;;;;15.52;11.23;;;;;;;;;;10333235;28;20028;-52
2023/02/03 10:58:27;;;;;;;14.40;10.68;;;;;;;;;;10335527;28;20041;-55
2023/02/03 11:03:28;;;;;;;18.17;12.00;;;;;;;;;;10333685;28;20487;-52
2023/02/03 11:08:35;;;;;;;18.58;10.88;;;;;;;;;;10352564;28;20505;-55
2023/02/03 11:13:36;;;;;;;14.10;11.15;;;;;;;;;;10346135;28;20073;-57
2023/02/03 11:18:54;;;;;;;14.88;10.27;;;;;;;;;;10341706;28;20088;-57
2023/02/03 11:24:00;;;;;;;14.38;10.00;;;;;;;;;;10333301;28;20038;-58
2023/02/03 11:29:03;;;;;;;17.90;11.02;;;;;;;;;;10318182;28;20394;-61
2023/02/03 11:34:17;;;;;;;14.27;10.48;;;;;;;;;;10366508;28;20108;-54
2023/02/03 11:39:28;;;;;;;13.55;10.50;;;;;;;;;;10359877;28;20081;-57
2023/02/03 11:44:32;;;;;;;14.23;10.55;;;;;;;;;;10351119;28;20037;-56
2023/02/03 11:50:08;;;;;;;15.43;10.60;;;;;;;;;;10345684;28;20053;-59
2023/02/03 11:55:33;;;;;;;13.27;10.02;;;;;;;;;;10328034;28;20037;-58
2023/02/03 12:01:03;;;;;;;13.48;10.25;;;;;;;;;;10325464;28;20029;-58
2023/02/03 12:06:22;;;;;;;12.38;9.43;;;;;;;;;;10339155;28;20038;-54
2023/02/03 12:11:50;;;;;;;16.10;11.38;;;;;;;;;;10345078;28;20421;-55
2023/02/03 12:17:47;;;;;;;14.32;9.90;;;;;;;;;;10340221;28;20089;-59
2023/02/03 12:23:03;;;;;;;13.48;9.05;;;;;;;;;;10274014;28;20042;-57
2023/02/03 12:28:21;;;;;;;12.57;9.68;;;;;;;;;;10328859;28;20049;-54
2023/02/03 12:33:37;;;;;;;15.93;10.32;;;;;;;;;;10362163;28;20042;-57
2023/02/03 12:38:45;;;;;;;12.38;9.95;;;;;;;;;;10364231;28;20052;-57
2023/02/03 12:43:51;;;;;;;14.57;10.18;;;;;;;;;;10335845;28;20027;-52
2023/02/03 12:49:00;;;;;;;12.60;9.55;;;;;;;;;;10320010;28;20092;-56
2023/02/03 12:54:28;;;;;;;14.63;10.57;;;;;;;;;;10323621;28;20036;-54
2023/02/03 12:59:30;;;;;;;15.20;10.15;;;;;;;;;;10322217;28;20046;-54
2023/02/03 13:04:52;;;;;;;15.93;11.27;;;;;;;;;;10337739;28;20530;-53
2023/02/03 13:10:15;;;;;;;13.90;10.15;;;;;;;;;;10329356;28;20397;-55
2023/02/03 13:15:33;;;;;;;14.95;10.30;;;;;;;;;;10335565;28;20034;-53
2023/02/03 13:20:37;;;;;;;12.37;9.43;;;;;;;;;;10340996;28;20458;-54
2023/02/03 13:26:09;;;;;;;13.52;10.02;;;;;;;;;;10353463;28;20026;-54
2023/02/03 13:32:17;;;;;;;13.73;9.75;;;;;;;;;;10334722;28;20365;-54
2023/02/03 13:37:58;;;;;;;13.10;9.33;;;;;;;;;;10316969;28;20134;-55
2023/02/03 13:43:04;;;;;;;11.77;9.00;;;;;;;;;;10281421;28;20100;-54
2023/02/03 13:48:20;;;;;;;14.57;9.82;;;;;;;;;;10327114;28;20018;-54
2023/02/03 13:53:24;;;;;;;10.80;8.85;;;;;;;;;;10325909;28;20482;-57
2023/02/03 13:58:34;;;;;;;12.40;9.25;;;;;;;;;;10327843;28;20061;-60
2023/02/03 14:03:34;;;;;;;13.20;9.50;;;;;;;;;;10314454;28;20045;-54
2023/02/03 14:08:35;;;;;;;12.82;9.65;;;;;;;;;;10339278;28;20028;-54
2023/02/03 14:13:35;;;;;;;13.23;10.25;;;;;;;;;;10330892;28;20034;-57
2023/02/03 14:18:45;;;;;;;18.13;12.55;;;;;;;;;;10333834;28;20030;-59
2023/02/03 14:23:57;;;;;;;18.08;12.98;;;;;;;;;;10332177;28;20041;-59
2023/02/03 14:28:58;;;;;;;20.83;14.75;;;;;;;;;;10328167;28;20659;-60
2023/02/03 14:34:13;;;;;;;18.90;14.48;;;;;;;;;;10331608;28;20458;-60
2023/02/03 14:39:17;;;;;;;19.52;14.13;;;;;;;;;;10333755;28;20046;-56
2023/02/03 14:44:55;;;;;;;20.90;15.07;;;;;;;;;;10341874;28;20030;-55
2023/02/03 14:50:23;;;;;;;21.75;14.77;;;;;;;;;;10350813;28;20038;-55
2023/02/03 14:56:17;;;;;;;23.35;15.70;;;;;;;;;;10368879;28;20063;-52
2023/02/03 15:01:34;;;;;;;22.02;15.82;;;;;;;;;;10367254;28;20037;-56
2023/02/03 15:06:49;;;;;;;25.85;15.75;;;;;;;;;;10358027;28;20022;-55
2023/02/03 15:11:50;;;;;;;24.60;14.85;;;;;;;;;;10367534;28;20114;-56
2023/02/03 15:16:56;;;;;;;18.85;14.02;;;;;;;;;;10367212;28;20018;-54
2023/02/03 15:21:57;;;;;;;20.73;15.00;;;;;;;;;;10366523;28;20105;-53
2023/02/03 15:26:58;;;;;;;20.40;14.45;;;;;;;;;;10366003;28;20044;-53
2023/02/03 15:32:23;;;;;;;24.95;15.30;;;;;;;;;;10354295;28;20053;-54
2023/02/03 15:37:59;;;;;;;20.55;14.65;;;;;;;;;;10366256;28;20107;-59
2023/02/03 15:43:21;;;;;;;20.08;14.75;;;;;;;;;;10362662;28;20031;-58
2023/02/03 15:48:45;;;;;;;21.20;14.70;;;;;;;;;;10363454;28;20032;-62
2023/02/03 15:53:58;;;;;;;22.25;15.40;;;;;;;;;;10338028;28;20069;-60
2023/02/03 15:58:58;;;;;;;22.17;14.38;;;;;;;;;;10342644;28;20030;-62
2023/02/03 16:03:59;;;;;;;20.98;15.27;;;;;;;;;;10342606;28;20040;-60
2023/02/03 16:09:00;;;;;;;23.30;15.50;;;;;;;;;;10339829;28;20492;-58
2023/02/03 16:14:29;;;;;;;27.33;15.20;;;;;;;;;;10342720;28;20022;-60
2023/02/03 16:19:33;;;;;;;23.48;15.18;;;;;;;;;;10326417;28;20034;-56
2023/02/03 16:24:41;;;;;;;23.65;14.88;;;;;;;;;;10345510;28;20033;-59
2023/02/03 16:51:06;;;;;;;27.13;17.60;;;;;;;;;;10334899;28;20027;-53
2023/02/03 16:56:07;;;;;;;36.17;18.30;;;;;;;;;;10325913;28;20034;-56
2023/02/03 17:01:10;;;;;;;26.90;17.08;;;;;;;;;;10328720;28;20034;-51
2023/02/03 17:06:12;;;;;;;29.25;18.13;;;;;;;;;;10350709;28;20030;-65
2023/02/03 17:11:19;;;;;;;33.75;16.83;;;;;;;;;;10335213;28;20128;-65
2023/02/03 17:16:25;;;;;;;26.95;16.95;;;;;;;;;;10337981;28;20022;-64
2023/02/03 17:21:27;;;;;;;25.88;15.13;;;;;;;;;;10350269;28;20026;-65
2023/02/03 17:26:28;;;;;;;28.60;17.10;;;;;;;;;;10350861;28;20026;-61
2023/02/03 17:31:29;;;;;;;28.77;15.50;;;;;;;;;;10334114;28;20026;-56
2023/02/03 17:36:30;;;;;;;28.20;16.95;;;;;;;;;;10333563;28;20109;-58
2023/02/03 17:41:31;;;;;;;33.00;16.33;;;;;;;;;;10333658;28;20026;-56
2023/02/03 17:46:31;;;;;;;31.75;15.90;;;;;;;;;;10327824;28;20046;-62
2023/02/03 17:51:32;;;;;;;28.15;16.50;;;;;;;;;;10332611;28;20121;-59
2023/02/03 17:56:34;;;;;;;24.50;14.40;;;;;;;;;;10331695;28;20038;-66
2023/02/03 18:01:35;;;;;;;29.40;15.65;;;;;;;;;;10323167;28;20045;-51
2023/02/03 18:06:36;;;;;;;20.30;13.52;;;;;;;;;;10334622;28;20033;-57
2023/02/03 18:11:37;;;;;;;25.15;15.48;;;;;;;;;;10351834;28;20027;-53
2023/02/03 18:16:38;;;;;;;24.63;14.63;;;;;;;;;;10360941;28;20026;-52
2023/02/03 18:21:40;;;;;;;29.10;14.98;;;;;;;;;;10367499;28;20026;-50
2023/02/03 18:26:48;;;;;;;26.30;14.73;;;;;;;;;;10361186;28;20033;-56
2023/02/03 18:31:49;;;;;;;23.60;14.10;;;;;;;;;;10355804;28;20031;-54
2023/02/03 18:36:50;;;;;;;24.13;14.75;;;;;;;;;;10353684;28;20406;-56
2023/02/03 18:41:50;;;;;;;26.00;15.65;;;;;;;;;;10349159;28;20022;-57
2023/02/03 18:46:54;;;;;;;24.58;15.05;;;;;;;;;;10335811;28;20061;-58
2023/02/03 18:51:54;;;;;;;21.23;14.48;;;;;;;;;;10313395;28;20026;-60
2023/02/03 18:56:59;;;;;;;25.92;14.65;;;;;;;;;;10326940;28;20371;-58
2023/02/03 19:02:00;;;;;;;26.27;13.52;;;;;;;;;;10327235;28;20030;-64
2023/02/03 19:07:00;;;;;;;24.10;14.00;;;;;;;;;;10320655;28;20038;-52
2023/02/03 19:12:01;;;;;;;24.08;14.63;;;;;;;;;;10335369;28;20463;-53
2023/02/03 19:17:03;;;;;;;25.33;15.80;;;;;;;;;;10328500;28;20289;-50
2023/02/03 19:22:04;;;;;;;23.67;15.45;;;;;;;;;;10328378;28;20473;-49
2023/02/03 19:27:04;;;;;;;26.33;15.23;;;;;;;;;;10333842;28;20038;-58
2023/02/03 19:32:08;;;;;;;25.33;16.58;;;;;;;;;;10328934;28;20029;-61
2023/02/03 19:37:08;;;;;;;24.02;15.55;;;;;;;;;;10334934;28;20051;-57
2023/02/03 19:42:10;;;;;;;27.25;17.10;;;;;;;;;;10310760;28;20023;-53
2023/02/03 19:47:11;;;;;;;26.70;16.35;;;;;;;;;;10306316;28;20090;-58
2023/02/03 19:52:11;;;;;;;25.35;16.38;;;;;;;;;;10325471;28;20104;-55
2023/02/03 19:57:12;;;;;;;28.88;17.20;;;;;;;;;;10331777;28;20040;-60
2023/02/03 20:02:13;;;;;;;23.17;16.48;;;;;;;;;;10335955;28;20049;-57
2023/02/03 20:07:13;;;;;;;26.00;16.23;;;;;;;;;;10358704;28;20037;-60
2023/02/03 20:12:14;;;;;;;24.10;16.70;;;;;;;;;;10349462;28;20032;-56
2023/02/03 20:17:15;;;;;;;22.20;15.48;;;;;;;;;;10329683;28;20038;-59
2023/02/03 20:22:15;;;;;;;24.13;15.98;;;;;;;;;;10326872;28;20402;-57
2023/02/03 20:27:16;;;;;;;26.58;15.70;;;;;;;;;;10313719;28;20034;-60
2023/02/03 20:32:17;;;;;;;19.48;13.77;;;;;;;;;;10321329;28;20498;-63
2023/02/03 20:37:18;;;;;;;25.10;15.55;;;;;;;;;;10324665;28;20039;-61
2023/02/03 20:42:19;;;;;;;23.15;15.45;;;;;;;;;;10325415;28;20049;-62
2023/02/03 20:47:21;;;;;;;21.67;13.60;;;;;;;;;;10324345;28;20030;-62
2023/02/03 20:52:22;;;;;;;35.08;15.57;;;;;;;;;;10332359;28;20471;-60
2023/02/03 20:57:22;;;;;;;39.67;15.38;;;;;;;;;;10323910;28;20034;-63
2023/02/03 21:02:32;;;;;;;27.83;16.67;;;;;;;;;;10331403;28;20055;-65
2023/02/03 21:07:33;;;;;;;36.55;16.58;;;;;;;;;;10343415;28;20034;-67
2023/02/03 21:12:34;;;;;;;33.97;16.00;;;;;;;;;;10365205;28;20022;-65
2023/02/03 21:17:34;;;;;;;25.60;15.48;;;;;;;;;;10339960;28;20033;-67
2023/02/03 21:22:35;;;;;;;28.17;15.80;;;;;;;;;;10330400;28;20030;-66
2023/02/03 21:27:35;;;;;;;30.58;16.02;;;;;;;;;;10325463;28;20022;-65
2023/02/03 21:32:38;;;;;;;27.67;15.05;;;;;;;;;;10324588;28;20037;-65
2023/02/03 21:37:40;;;;;;;24.90;15.23;;;;;;;;;;10324826;28;20133;-66
2023/02/03 21:42:41;;;;;;;24.73;14.00;;;;;;;;;;10327345;28;20030;-66
2023/02/03 21:47:47;;;;;;;29.85;14.60;;;;;;;;;;10330257;28;20470;-65
2023/02/03 21:52:48;;;;;;;29.45;15.38;;;;;;;;;;10331609;28;20030;-66
2023/02/03 21:57:49;;;;;;;24.27;14.95;;;;;;;;;;10350760;28;20042;-65
2023/02/03 22:02:58;;;;;;;23.48;15.57;;;;;;;;;;10361758;28;20034;-67
2023/02/03 22:07:58;;;;;;;;;;;;;;;;;;10367594;28;20053;-66
2023/02/03 22:12:59;;;;;;;29.47;18.30;;;;;;;;;;10353556;28;19997;-64
2023/02/03 22:17:59;;;;;;;29.42;17.88;;;;;;;;;;10347091;28;20486;-67
2023/02/03 22:23:00;;;;;;;30.67;18.05;;;;;;;;;;10336119;28;20100;-53
2023/02/03 22:28:01;;;;;;;32.53;18.08;;;;;;;;;;10330016;28;20022;-64
2023/02/03 22:33:02;;;;;;;26.40;18.17;;;;;;;;;;10331120;28;20073;-67
2023/02/03 22:38:02;;;;;;;34.97;18.55;;;;;;;;;;10327158;28;20133;-55
2023/02/03 22:43:03;;;;;;;36.55;19.02;;;;;;;;;;10335915;28;20022;-66
2023/02/03 22:48:04;;;;;;;34.60;19.17;;;;;;;;;;10336200;28;20037;-67
2023/02/03 22:53:08;;;;;;;37.67;17.90;;;;;;;;;;10344510;28;20129;-54
2023/02/03 22:58:08;;;;;;;29.33;19.25;;;;;;;;;;10325513;28;20090;-62
2023/02/03 23:03:09;;;;;;;25.30;17.90;;;;;;;;;;10331093;28;20070;-67
2023/02/03 23:08:09;;;;;;;31.40;18.38;;;;;;;;;;10365802;28;20028;-66
2023/02/03 23:13:10;;;;;;;29.05;18.05;;;;;;;;;;10355103;28;20034;-61
2023/02/03 23:18:11;;;;;;;31.98;18.08;;;;;;;;;;10353736;28;20029;-67
2023/02/03 23:23:12;;;;;;;25.48;18.52;;;;;;;;;;10319917;28;20061;-62
2023/02/03 23:28:13;;;;;;;31.45;16.80;;;;;;;;;;10323475;28;20165;-67
2023/02/03 23:33:14;;;;;;;26.77;17.05;;;;;;;;;;10356627;28;20030;-66
2023/02/03 23:38:16;;;;;;;22.77;15.57;;;;;;;;;;10352656;28;20054;-61
2023/02/03 23:43:17;;;;;;;26.25;15.95;;;;;;;;;;10347147;28;20030;-60
2023/02/03 23:48:17;;;;;;;24.48;16.02;;;;;;;;;;10361620;28;20469;-55
2023/02/03 23:53:18;;;;;;;26.95;15.57;;;;;;;;;;10351489;28;20026;-55
2023/02/03 23:58:18;;;;;;;24.50;15.80;;;;;;;;;;10364015;28;20093;-66
